Milbank, South Dakota
Current Conditions -  °F | °C
As of 2:14 PM on Thursday 29 Jan 2015 (Local Time) from KVVV Reporting Station
Overcast Overcast  
Wind Chill:   Ceiling: 1900
Heat Index: 21°   Visibility: 10mi
Dew Point: 16°   Wind: 23mph
Humidity: 80%   Direction: 330°NNW
Pressure: 30.45"   Gusts: 30mph
Location:  45.22°N, 96.63°W
Report Text: KVVV 292014Z AUTO 33020G26KT 10SM OVC019 M06/M09 A3045 RMK AO2
Loading
Personal Weather Stations






























Interactive Weather Map New forecast layout! Learn more

10-Day Weather Forecast

Advertisements
Track Severe Weather on mobile